sensor_id;sensor_type;location;lat;lon;timestamp;pressure;altitude;pressure_sealevel;temperature;humidity
84904;BME280;75168;52.096;5.214;2024-03-08T00:00:01;101972.41;;;7.42;53.26
84904;BME280;75168;52.096;5.214;2024-03-08T00:02:37;101969.75;;;7.41;53.22
84904;BME280;75168;52.096;5.214;2024-03-08T00:05:06;101978.38;;;7.40;53.13
84904;BME280;75168;52.096;5.214;2024-03-08T00:07:35;101970.53;;;7.38;53.09
84904;BME280;75168;52.096;5.214;2024-03-08T00:10:04;101972.16;;;7.36;52.94
84904;BME280;75168;52.096;5.214;2024-03-08T00:12:30;101970.31;;;7.34;52.88
84904;BME280;75168;52.096;5.214;2024-03-08T00:14:56;101970.38;;;7.35;53.01
84904;BME280;75168;52.096;5.214;2024-03-08T00:17:22;101964.97;;;7.31;53.00
84904;BME280;75168;52.096;5.214;2024-03-08T00:19:54;101965.75;;;7.28;53.18
84904;BME280;75168;52.096;5.214;2024-03-08T00:22:19;101963.84;;;7.24;52.98
84904;BME280;75168;52.096;5.214;2024-03-08T00:24:47;101954.25;;;7.23;53.22
84904;BME280;75168;52.096;5.214;2024-03-08T00:27:14;101960.28;;;7.22;53.20
84904;BME280;75168;52.096;5.214;2024-03-08T00:29:41;101955.03;;;7.20;52.98
84904;BME280;75168;52.096;5.214;2024-03-08T00:32:06;101961.03;;;7.19;53.04
84904;BME280;75168;52.096;5.214;2024-03-08T00:34:38;101954.09;;;7.18;53.02
84904;BME280;75168;52.096;5.214;2024-03-08T00:37:04;101943.56;;;7.15;53.00
84904;BME280;75168;52.096;5.214;2024-03-08T00:39:29;101940.88;;;7.14;53.06
84904;BME280;75168;52.096;5.214;2024-03-08T00:41:55;101938.16;;;7.11;53.15
84904;BME280;75168;52.096;5.214;2024-03-08T00:44:20;101945.88;;;7.09;53.10
84904;BME280;75168;52.096;5.214;2024-03-08T00:46:46;101935.41;;;7.08;53.20
84904;BME280;75168;52.096;5.214;2024-03-08T00:49:11;101936.19;;;7.05;53.39
84904;BME280;75168;52.096;5.214;2024-03-08T00:51:38;101936.94;;;7.02;53.10
84904;BME280;75168;52.096;5.214;2024-03-08T00:54:04;101935.97;;;7.00;53.21
84904;BME280;75168;52.096;5.214;2024-03-08T00:56:29;101931.53;;;6.98;53.30
84904;BME280;75168;52.096;5.214;2024-03-08T00:58:55;101919.38;;;6.97;53.23
84904;BME280;75168;52.096;5.214;2024-03-08T01:01:20;101920.13;;;6.94;53.08
84904;BME280;75168;52.096;5.214;2024-03-08T01:03:46;101919.19;;;6.92;53.24
84904;BME280;75168;52.096;5.214;2024-03-08T01:06:12;101913.94;;;6.91;53.08
84904;BME280;75168;52.096;5.214;2024-03-08T01:08:37;101911.25;;;6.89;53.34
84904;BME280;75168;52.096;5.214;2024-03-08T01:11:08;101906.00;;;6.88;53.31
84904;BME280;75168;52.096;5.214;2024-03-08T01:13:34;101905.88;;;6.84;53.37
84904;BME280;75168;52.096;5.214;2024-03-08T01:16:00;101898.03;;;6.83;53.36
84904;BME280;75168;52.096;5.214;2024-03-08T01:18:25;101893.59;;;6.80;53.21
84904;BME280;75168;52.096;5.214;2024-03-08T01:20:51;101890.03;;;6.78;53.35
84904;BME280;75168;52.096;5.214;2024-03-08T01:23:16;101889.09;;;6.76;53.36
84904;BME280;75168;52.096;5.214;2024-03-08T01:25:42;101891.59;;;6.75;53.35
84904;BME280;75168;52.096;5.214;2024-03-08T01:28:09;101887.22;;;6.74;53.34
84904;BME280;75168;52.096;5.214;2024-03-08T01:30:35;101888.88;;;6.72;53.36
84904;BME280;75168;52.096;5.214;2024-03-08T01:33:03;101886.19;;;6.70;53.46
84904;BME280;75168;52.096;5.214;2024-03-08T01:35:28;101874.06;;;6.69;53.44
84904;BME280;75168;52.096;5.214;2024-03-08T01:37:54;101873.94;;;6.66;53.28
84904;BME280;75168;52.096;5.214;2024-03-08T01:40:20;101873.78;;;6.63;53.40
84904;BME280;75168;52.096;5.214;2024-03-08T01:42:45;101868.56;;;6.61;53.35
84904;BME280;75168;52.096;5.214;2024-03-08T01:45:11;101870.13;;;6.58;53.25
84904;BME280;75168;52.096;5.214;2024-03-08T01:47:37;101857.88;;;6.55;53.55
84904;BME280;75168;52.096;5.214;2024-03-08T01:50:03;101867.44;;;6.56;53.59
84904;BME280;75168;52.096;5.214;2024-03-08T01:52:30;101859.59;;;6.55;53.48
84904;BME280;75168;52.096;5.214;2024-03-08T01:54:59;101856.94;;;6.53;53.57
84904;BME280;75168;52.096;5.214;2024-03-08T01:57:27;101857.75;;;6.52;53.45
84904;BME280;75168;52.096;5.214;2024-03-08T01:59:53;101858.59;;;6.51;53.34
84904;BME280;75168;52.096;5.214;2024-03-08T02:02:21;101854.19;;;6.50;53.56
84904;BME280;75168;52.096;5.214;2024-03-08T02:04:47;101860.16;;;6.47;53.41
84904;BME280;75168;52.096;5.214;2024-03-08T02:07:13;101852.22;;;6.44;53.33
84904;BME280;75168;52.096;5.214;2024-03-08T02:09:38;101846.88;;;6.41;53.40
84904;BME280;75168;52.096;5.214;2024-03-08T02:12:05;101850.25;;;6.39;53.27
84904;BME280;75168;52.096;5.214;2024-03-08T02:14:35;101843.19;;;6.36;53.35
84904;BME280;75168;52.096;5.214;2024-03-08T02:17:02;101843.09;;;6.33;53.45
84904;BME280;75168;52.096;5.214;2024-03-08T02:19:27;101843.88;;;6.32;53.32
84904;BME280;75168;52.096;5.214;2024-03-08T02:21:53;101833.38;;;6.29;53.36
84904;BME280;75168;52.096;5.214;2024-03-08T02:24:19;101833.31;;;6.27;53.43
84904;BME280;75168;52.096;5.214;2024-03-08T02:26:45;101819.34;;;6.24;53.39
84904;BME280;75168;52.096;5.214;2024-03-08T02:29:10;101823.69;;;6.25;53.41
84904;BME280;75168;52.096;5.214;2024-03-08T02:31:36;101822.75;;;6.23;53.26
84904;BME280;75168;52.096;5.214;2024-03-08T02:34:01;101826.09;;;6.20;53.49
84904;BME280;75168;52.096;5.214;2024-03-08T02:36:27;101816.38;;;6.16;53.34
84904;BME280;75168;52.096;5.214;2024-03-08T02:38:52;101808.53;;;6.15;53.48
84904;BME280;75168;52.096;5.214;2024-03-08T02:41:20;101816.22;;;6.13;53.44
84904;BME280;75168;52.096;5.214;2024-03-08T02:43:46;101812.63;;;6.09;53.43
84904;BME280;75168;52.096;5.214;2024-03-08T02:46:11;101803.88;;;6.07;53.31
84904;BME280;75168;52.096;5.214;2024-03-08T02:48:37;101799.47;;;6.05;53.26
84904;BME280;75168;52.096;5.214;2024-03-08T02:51:03;101791.53;;;6.02;53.45
84904;BME280;75168;52.096;5.214;2024-03-08T02:53:29;101798.38;;;6.00;53.53
84904;BME280;75168;52.096;5.214;2024-03-08T02:55:54;101789.72;;;5.99;53.44
84904;BME280;75168;52.096;5.214;2024-03-08T02:58:20;101789.63;;;5.98;53.49
84904;BME280;75168;52.096;5.214;2024-03-08T03:00:46;101787.13;;;5.99;53.35
84904;BME280;75168;52.096;5.214;2024-03-08T03:03:11;101785.25;;;5.97;53.55
84904;BME280;75168;52.096;5.214;2024-03-08T03:05:37;101787.69;;;5.94;53.45
84904;BME280;75168;52.096;5.214;2024-03-08T03:08:02;101781.53;;;5.91;53.46
84904;BME280;75168;52.096;5.214;2024-03-08T03:10:35;101777.13;;;5.89;53.47
84904;BME280;75168;52.096;5.214;2024-03-08T03:13:01;101776.25;;;5.88;53.45
84904;BME280;75168;52.096;5.214;2024-03-08T03:15:26;101774.38;;;5.86;53.40
84904;BME280;75168;52.096;5.214;2024-03-08T03:17:52;101776.09;;;5.85;53.27
84904;BME280;75168;52.096;5.214;2024-03-08T03:20:18;101769.13;;;5.84;53.57
84904;BME280;75168;52.096;5.214;2024-03-08T03:22:52;101770.75;;;5.82;53.39
84904;BME280;75168;52.096;5.214;2024-03-08T03:25:21;101766.41;;;5.81;53.53
84904;BME280;75168;52.096;5.214;2024-03-08T03:27:59;101765.44;;;5.79;53.62
84904;BME280;75168;52.096;5.214;2024-03-08T03:30:25;101761.97;;;5.79;53.42
84904;BME280;75168;52.096;5.214;2024-03-08T03:32:53;101755.81;;;5.77;53.42
84904;BME280;75168;52.096;5.214;2024-03-08T03:35:20;101754.94;;;5.76;53.47
84904;BME280;75168;52.096;5.214;2024-03-08T03:37:47;101758.34;;;5.75;53.44
84904;BME280;75168;52.096;5.214;2024-03-08T03:40:36;101754.78;;;5.73;53.53
84904;BME280;75168;52.096;5.214;2024-03-08T03:43:01;101752.88;;;5.69;53.25
84904;BME280;75168;52.096;5.214;2024-03-08T03:45:28;101742.53;;;5.69;53.28
84904;BME280;75168;52.096;5.214;2024-03-08T03:47:54;101745.84;;;5.66;53.45
84904;BME280;75168;52.096;5.214;2024-03-08T03:50:20;101744.91;;;5.64;53.30
84904;BME280;75168;52.096;5.214;2024-03-08T03:52:47;101737.88;;;5.62;53.48
84904;BME280;75168;52.096;5.214;2024-03-08T03:55:14;101738.63;;;5.59;53.39
84904;BME280;75168;52.096;5.214;2024-03-08T03:57:40;101742.03;;;5.58;53.33
84904;BME280;75168;52.096;5.214;2024-03-08T04:00:06;101735.94;;;5.58;53.59
84904;BME280;75168;52.096;5.214;2024-03-08T04:02:40;101734.19;;;5.57;53.50
84904;BME280;75168;52.096;5.214;2024-03-08T04:05:07;101747.94;;;5.56;53.28
84904;BME280;75168;52.096;5.214;2024-03-08T04:07:33;101740.09;;;5.54;53.36
84904;BME280;75168;52.096;5.214;2024-03-08T04:10:03;101728.88;;;5.53;53.50
84904;BME280;75168;52.096;5.214;2024-03-08T04:12:29;101729.66;;;5.52;53.42
84904;BME280;75168;52.096;5.214;2024-03-08T04:14:55;101727.03;;;5.51;53.51
84904;BME280;75168;52.096;5.214;2024-03-08T04:17:21;101727.91;;;5.51;53.75
84904;BME280;75168;52.096;5.214;2024-03-08T04:19:47;101720.94;;;5.50;53.43
84904;BME280;75168;52.096;5.214;2024-03-08T04:22:14;101727.91;;;5.51;53.46
84904;BME280;75168;52.096;5.214;2024-03-08T04:24:39;101724.44;;;5.51;53.21
84904;BME280;75168;52.096;5.214;2024-03-08T04:27:07;101721.84;;;5.51;53.35
84904;BME280;75168;52.096;5.214;2024-03-08T04:29:32;101712.22;;;5.48;53.28
84904;BME280;75168;52.096;5.214;2024-03-08T04:32:00;101713.94;;;5.48;53.33
84904;BME280;75168;52.096;5.214;2024-03-08T04:34:26;101714.75;;;5.47;53.27
84904;BME280;75168;52.096;5.214;2024-03-08T04:36:54;101718.16;;;5.46;53.26
84904;BME280;75168;52.096;5.214;2024-03-08T04:39:19;101724.22;;;5.46;53.20
84904;BME280;75168;52.096;5.214;2024-03-08T04:41:46;101723.25;;;5.44;53.44
84904;BME280;75168;52.096;5.214;2024-03-08T04:44:12;101712.91;;;5.44;53.36
84904;BME280;75168;52.096;5.214;2024-03-08T04:46:38;101708.63;;;5.45;53.57
84904;BME280;75168;52.096;5.214;2024-03-08T04:49:04;101706.91;;;5.45;53.39
84904;BME280;75168;52.096;5.214;2024-03-08T04:51:29;101710.31;;;5.44;53.29
84904;BME280;75168;52.096;5.214;2024-03-08T04:53:56;101700.78;;;5.43;53.31
84904;BME280;75168;52.096;5.214;2024-03-08T04:56:22;101703.34;;;5.43;53.32
84904;BME280;75168;52.096;5.214;2024-03-08T04:58:48;101706.78;;;5.42;53.33
84904;BME280;75168;52.096;5.214;2024-03-08T05:01:13;101697.16;;;5.40;53.22
84904;BME280;75168;52.096;5.214;2024-03-08T05:03:39;101698.88;;;5.39;53.53
84904;BME280;75168;52.096;5.214;2024-03-08T05:06:05;101700.56;;;5.39;53.19
84904;BME280;75168;52.096;5.214;2024-03-08T05:08:30;101703.97;;;5.38;53.27
84904;BME280;75168;52.096;5.214;2024-03-08T05:10:56;101697.91;;;5.37;53.24
84904;BME280;75168;52.096;5.214;2024-03-08T05:13:21;101694.44;;;5.37;53.24
84904;BME280;75168;52.096;5.214;2024-03-08T05:15:51;101695.25;;;5.36;53.25
84904;BME280;75168;52.096;5.214;2024-03-08T05:18:17;101689.28;;;5.37;53.20
84904;BME280;75168;52.096;5.214;2024-03-08T05:20:42;101684.81;;;5.34;53.15
84904;BME280;75168;52.096;5.214;2024-03-08T05:23:08;101685.66;;;5.33;53.22
84904;BME280;75168;52.096;5.214;2024-03-08T05:25:34;101689.03;;;5.32;53.16
84904;BME280;75168;52.096;5.214;2024-03-08T05:28:00;101685.66;;;5.33;53.13
84904;BME280;75168;52.096;5.214;2024-03-08T05:30:25;101680.41;;;5.31;53.32
84904;BME280;75168;52.096;5.214;2024-03-08T05:32:51;101691.63;;;5.32;53.16
84904;BME280;75168;52.096;5.214;2024-03-08T05:35:16;101692.44;;;5.31;53.29
84904;BME280;75168;52.096;5.214;2024-03-08T05:37:42;101692.44;;;5.31;53.34
84904;BME280;75168;52.096;5.214;2024-03-08T05:40:08;101687.25;;;5.31;53.01
84904;BME280;75168;52.096;5.214;2024-03-08T05:42:40;101683.72;;;5.29;53.06
84904;BME280;75168;52.096;5.214;2024-03-08T05:45:06;101685.41;;;5.28;53.04
84904;BME280;75168;52.096;5.214;2024-03-08T05:47:32;101680.16;;;5.27;53.21
84904;BME280;75168;52.096;5.214;2024-03-08T05:50:01;101680.16;;;5.27;53.22
84904;BME280;75168;52.096;5.214;2024-03-08T05:52:27;101672.34;;;5.25;53.28
84904;BME280;75168;52.096;5.214;2024-03-08T05:54:53;101668.88;;;5.25;53.14
84904;BME280;75168;52.096;5.214;2024-03-08T05:57:18;101678.41;;;5.26;53.12
84904;BME280;75168;52.096;5.214;2024-03-08T05:59:44;101670.56;;;5.24;53.19
84904;BME280;75168;52.096;5.214;2024-03-08T06:02:10;101666.22;;;5.23;53.21
84904;BME280;75168;52.096;5.214;2024-03-08T06:04:35;101666.28;;;5.25;53.21
84904;BME280;75168;52.096;5.214;2024-03-08T06:07:01;101660.22;;;5.24;52.99
84904;BME280;75168;52.096;5.214;2024-03-08T06:09:44;101661.84;;;5.22;53.17
84904;BME280;75168;52.096;5.214;2024-03-08T06:12:12;101660.06;;;5.21;52.99
84904;BME280;75168;52.096;5.214;2024-03-08T06:14:37;101657.41;;;5.20;53.02
84904;BME280;75168;52.096;5.214;2024-03-08T06:17:03;101658.22;;;5.19;52.97
84904;BME280;75168;52.096;5.214;2024-03-08T06:19:32;101653.94;;;5.19;53.25
84904;BME280;75168;52.096;5.214;2024-03-08T06:21:58;101659.19;;;5.21;53.16
84904;BME280;75168;52.096;5.214;2024-03-08T06:24:23;101656.53;;;5.19;53.16
84904;BME280;75168;52.096;5.214;2024-03-08T06:26:49;101656.63;;;5.21;53.05
84904;BME280;75168;52.096;5.214;2024-03-08T06:29:14;101660.00;;;5.20;53.18
84904;BME280;75168;52.096;5.214;2024-03-08T06:31:40;101653.13;;;5.20;53.22
84904;BME280;75168;52.096;5.214;2024-03-08T06:34:06;101659.19;;;5.21;52.96
84904;BME280;75168;52.096;5.214;2024-03-08T06:36:34;101653.13;;;5.20;52.89
84904;BME280;75168;52.096;5.214;2024-03-08T06:39:00;101660.88;;;5.20;53.15
84904;BME280;75168;52.096;5.214;2024-03-08T06:41:25;101650.59;;;5.22;53.27
84904;BME280;75168;52.096;5.214;2024-03-08T06:43:52;101651.63;;;5.25;53.29
84904;BME280;75168;52.096;5.214;2024-03-08T06:46:22;101655.13;;;5.26;52.97
84904;BME280;75168;52.096;5.214;2024-03-08T06:48:48;101650.91;;;5.28;53.14
84904;BME280;75168;52.096;5.214;2024-03-08T06:51:14;101647.50;;;5.29;53.23
84904;BME280;75168;52.096;5.214;2024-03-08T06:53:40;101651.09;;;5.32;53.30
84904;BME280;75168;52.096;5.214;2024-03-08T06:56:06;101656.50;;;5.37;53.26
84904;BME280;75168;52.096;5.214;2024-03-08T06:58:36;101660.06;;;5.39;53.36
84904;BME280;75168;52.096;5.214;2024-03-08T07:01:01;101649.94;;;5.44;53.46
84904;BME280;75168;52.096;5.214;2024-03-08T07:03:29;101645.91;;;5.50;53.13
84904;BME280;75168;52.096;5.214;2024-03-08T07:05:56;101644.50;;;5.57;53.51
84904;BME280;75168;52.096;5.214;2024-03-08T07:08:23;101638.78;;;5.64;53.33
84904;BME280;75168;52.096;5.214;2024-03-08T07:10:49;101639.06;;;5.70;53.33
84904;BME280;75168;52.096;5.214;2024-03-08T07:13:15;101638.53;;;5.78;53.49
84904;BME280;75168;52.096;5.214;2024-03-08T07:15:41;101637.16;;;5.86;53.38
84904;BME280;75168;52.096;5.214;2024-03-08T07:18:07;101633.06;;;5.91;53.23
84904;BME280;75168;52.096;5.214;2024-03-08T07:20:34;101635.22;;;6.00;53.28
84904;BME280;75168;52.096;5.214;2024-03-08T07:23:00;101632.06;;;6.07;53.12
84904;BME280;75168;52.096;5.214;2024-03-08T07:25:26;101624.53;;;6.13;53.04
84904;BME280;75168;52.096;5.214;2024-03-08T07:27:55;101619.66;;;6.19;53.20
84904;BME280;75168;52.096;5.214;2024-03-08T07:30:25;101620.03;;;6.28;53.17
84904;BME280;75168;52.096;5.214;2024-03-08T07:33:10;101616.19;;;6.40;53.19
84904;BME280;75168;52.096;5.214;2024-03-08T07:35:39;101612.22;;;6.48;53.13
84904;BME280;75168;52.096;5.214;2024-03-08T07:38:06;101611.63;;;6.55;53.02
84904;BME280;75168;52.096;5.214;2024-03-08T07:40:38;101609.41;;;6.64;52.86
84904;BME280;75168;52.096;5.214;2024-03-08T07:43:10;101609.03;;;6.76;52.77
84904;BME280;75168;52.096;5.214;2024-03-08T07:45:39;101600.81;;;6.86;52.64
84904;BME280;75168;52.096;5.214;2024-03-08T07:48:06;101603.00;;;6.98;52.38
84904;BME280;75168;52.096;5.214;2024-03-08T07:50:39;101602.72;;;7.13;52.73
84904;BME280;75168;52.096;5.214;2024-03-08T07:53:05;101602.59;;;7.33;53.22
84904;BME280;75168;52.096;5.214;2024-03-08T07:55:34;101597.47;;;7.58;53.45
84904;BME280;75168;52.096;5.214;2024-03-08T07:58:14;101591.69;;;7.90;53.72
84904;BME280;75168;52.096;5.214;2024-03-08T08:00:43;101587.50;;;8.19;53.92
84904;BME280;75168;52.096;5.214;2024-03-08T08:03:09;101589.28;;;8.46;53.59
84904;BME280;75168;52.096;5.214;2024-03-08T08:05:41;101589.19;;;8.68;53.16
84904;BME280;75168;52.096;5.214;2024-03-08T08:08:08;101582.00;;;8.88;52.38
84904;BME280;75168;52.096;5.214;2024-03-08T08:10:36;101581.53;;;9.02;51.43
84904;BME280;75168;52.096;5.214;2024-03-08T08:13:21;101582.69;;;9.11;50.92
84904;BME280;75168;52.096;5.214;2024-03-08T08:15:47;101577.94;;;9.27;50.69
84904;BME280;75168;52.096;5.214;2024-03-08T08:18:13;101574.00;;;9.40;50.32
84904;BME280;75168;52.096;5.214;2024-03-08T08:20:39;101572.53;;;9.49;49.87
84904;BME280;75168;52.096;5.214;2024-03-08T08:23:05;101564.13;;;9.60;49.46
84904;BME280;75168;52.096;5.214;2024-03-08T08:25:31;101561.03;;;9.73;49.86
84904;BME280;75168;52.096;5.214;2024-03-08T08:27:59;101560.72;;;9.94;49.50
84904;BME280;75168;52.096;5.214;2024-03-08T08:30:25;101556.94;;;10.15;50.27
84904;BME280;75168;52.096;5.214;2024-03-08T08:32:51;101545.47;;;10.41;50.42
84904;BME280;75168;52.096;5.214;2024-03-08T08:35:16;101548.75;;;10.71;50.92
84904;BME280;75168;52.096;5.214;2024-03-08T08:37:43;101552.03;;;11.01;51.30
84904;BME280;75168;52.096;5.214;2024-03-08T08:40:10;101549.94;;;11.23;49.50
84904;BME280;75168;52.096;5.214;2024-03-08T08:42:40;101546.59;;;11.32;49.04
84904;BME280;75168;52.096;5.214;2024-03-08T08:45:07;101540.69;;;11.40;47.87
84904;BME280;75168;52.096;5.214;2024-03-08T08:47:36;101534.63;;;11.41;46.85
84904;BME280;75168;52.096;5.214;2024-03-08T08:50:03;101537.06;;;11.32;46.12
84904;BME280;75168;52.096;5.214;2024-03-08T08:52:31;101527.38;;;11.27;46.19
84904;BME280;75168;52.096;5.214;2024-03-08T08:54:57;101522.06;;;11.23;46.17
84904;BME280;75168;52.096;5.214;2024-03-08T08:57:22;101520.28;;;11.22;46.02
84904;BME280;75168;52.096;5.214;2024-03-08T08:59:48;101524.59;;;11.20;45.52
84904;BME280;75168;52.096;5.214;2024-03-08T09:02:13;101514.97;;;11.16;45.71
84904;BME280;75168;52.096;5.214;2024-03-08T09:04:40;101513.22;;;11.17;45.49
84904;BME280;75168;52.096;5.214;2024-03-08T09:07:06;101513.19;;;11.15;45.75
84904;BME280;75168;52.096;5.214;2024-03-08T09:09:34;101509.81;;;11.19;45.99
84904;BME280;75168;52.096;5.214;2024-03-08T09:12:00;101503.69;;;11.19;45.48
84904;BME280;75168;52.096;5.214;2024-03-08T09:14:26;101512.41;;;11.19;45.55
84904;BME280;75168;52.096;5.214;2024-03-08T09:16:52;101511.69;;;11.27;46.20
84904;BME280;75168;52.096;5.214;2024-03-08T09:19:17;101496.25;;;11.39;46.29
84904;BME280;75168;52.096;5.214;2024-03-08T09:21:45;101489.50;;;11.50;46.01
84904;BME280;75168;52.096;5.214;2024-03-08T09:24:10;101483.63;;;11.62;46.04
84904;BME280;75168;52.096;5.214;2024-03-08T09:26:36;101481.22;;;11.74;46.01
84904;BME280;75168;52.096;5.214;2024-03-08T09:29:02;101478.81;;;11.85;45.72
84904;BME280;75168;52.096;5.214;2024-03-08T09:31:28;101472.03;;;11.93;44.83
84904;BME280;75168;52.096;5.214;2024-03-08T09:33:53;101482.44;;;11.92;44.32
84904;BME280;75168;52.096;5.214;2024-03-08T09:36:19;101476.25;;;11.88;44.54
84904;BME280;75168;52.096;5.214;2024-03-08T09:38:45;101472.75;;;11.86;44.40
84904;BME280;75168;52.096;5.214;2024-03-08T09:41:11;101466.66;;;11.87;44.53
84904;BME280;75168;52.096;5.214;2024-03-08T09:43:38;101460.72;;;11.94;44.53
84904;BME280;75168;52.096;5.214;2024-03-08T09:46:04;101449.47;;;12.00;44.21
84904;BME280;75168;52.096;5.214;2024-03-08T09:48:31;101454.81;;;12.08;44.24
84904;BME280;75168;52.096;5.214;2024-03-08T09:50:57;101452.34;;;12.17;44.66
84904;BME280;75168;52.096;5.214;2024-03-08T09:53:23;101435.16;;;12.33;44.99
84904;BME280;75168;52.096;5.214;2024-03-08T09:55:49;101435.38;;;12.48;44.96
84904;BME280;75168;52.096;5.214;2024-03-08T09:58:16;101433.84;;;12.63;44.78
84904;BME280;75168;52.096;5.214;2024-03-08T10:00:52;101425.34;;;12.81;45.43
84904;BME280;75168;52.096;5.214;2024-03-08T10:03:19;101425.59;;;13.01;44.48
84904;BME280;75168;52.096;5.214;2024-03-08T10:05:45;101423.97;;;13.10;43.92
84904;BME280;75168;52.096;5.214;2024-03-08T10:08:12;101425.75;;;13.14;43.33
84904;BME280;75168;52.096;5.214;2024-03-08T10:10:38;101416.13;;;13.15;42.77
84904;BME280;75168;52.096;5.214;2024-03-08T10:13:07;101412.66;;;13.14;42.53
84904;BME280;75168;52.096;5.214;2024-03-08T10:15:33;101406.53;;;13.14;42.28
84904;BME280;75168;52.096;5.214;2024-03-08T10:17:59;101403.91;;;13.12;41.94
84904;BME280;75168;52.096;5.214;2024-03-08T10:20:33;101403.91;;;13.12;42.18
84904;BME280;75168;52.096;5.214;2024-03-08T10:23:05;101386.53;;;13.22;42.39
84904;BME280;75168;52.096;5.214;2024-03-08T10:25:31;101383.16;;;13.31;42.18
84904;BME280;75168;52.096;5.214;2024-03-08T10:27:57;101376.25;;;13.39;41.93
84904;BME280;75168;52.096;5.214;2024-03-08T10:30:22;101369.31;;;13.44;41.61
84904;BME280;75168;52.096;5.214;2024-03-08T10:32:49;101364.09;;;13.46;41.29
84904;BME280;75168;52.096;5.214;2024-03-08T10:35:17;101370.25;;;13.51;41.47
84904;BME280;75168;52.096;5.214;2024-03-08T10:37:50;101356.28;;;13.52;41.49
84904;BME280;75168;52.096;5.214;2024-03-08T10:40:28;101343.28;;;13.66;42.35
84904;BME280;75168;52.096;5.214;2024-03-08T10:42:55;101335.56;;;13.84;42.52
84904;BME280;75168;52.096;5.214;2024-03-08T10:48:31;101333.22;;;14.34;42.70
84904;BME280;75168;52.096;5.214;2024-03-08T10:51:04;101333.28;;;14.49;41.19
84904;BME280;75168;52.096;5.214;2024-03-08T10:53:30;101327.22;;;14.56;41.26
84904;BME280;75168;52.096;5.214;2024-03-08T10:55:57;101315.88;;;14.66;41.48
84904;BME280;75168;52.096;5.214;2024-03-08T10:58:25;101308.97;;;14.96;41.82
84904;BME280;75168;52.096;5.214;2024-03-08T11:00:56;101302.88;;;15.27;40.04
84904;BME280;75168;52.096;5.214;2024-03-08T11:03:44;101304.63;;;15.45;40.72
84904;BME280;75168;52.096;5.214;2024-03-08T11:06:29;101296.72;;;15.66;39.09
84904;BME280;75168;52.096;5.214;2024-03-08T11:08:56;101292.34;;;15.80;39.46
84904;BME280;75168;52.096;5.214;2024-03-08T11:11:31;101283.53;;;16.00;39.74
84904;BME280;75168;52.096;5.214;2024-03-08T11:13:58;101274.69;;;16.23;39.08
84904;BME280;75168;52.096;5.214;2024-03-08T11:21:37;101254.44;;;16.35;38.01
84904;BME280;75168;52.096;5.214;2024-03-08T11:24:11;101253.41;;;16.63;37.87
84904;BME280;75168;52.096;5.214;2024-03-08T11:27:03;101243.59;;;16.97;37.73
84904;BME280;75168;52.096;5.214;2024-03-08T11:33:23;101220.56;;;17.18;36.75
84904;BME280;75168;52.096;5.214;2024-03-08T11:35:49;101221.41;;;17.20;35.84
84904;BME280;75168;52.096;5.214;2024-03-08T11:38:15;101218.78;;;17.20;35.77
84904;BME280;75168;52.096;5.214;2024-03-08T11:40:42;101214.34;;;17.23;35.42
84904;BME280;75168;52.096;5.214;2024-03-08T11:43:08;101215.16;;;17.35;35.84
84904;BME280;75168;52.096;5.214;2024-03-08T11:45:36;101197.44;;;17.44;35.47
84904;BME280;75168;52.096;5.214;2024-03-08T11:48:03;101186.84;;;17.50;34.71
84904;BME280;75168;52.096;5.214;2024-03-08T11:50:30;101188.47;;;17.62;35.58
84904;BME280;75168;52.096;5.214;2024-03-08T11:53:06;101180.31;;;17.84;34.73
84904;BME280;75168;52.096;5.214;2024-03-08T11:55:32;101166.19;;;17.89;34.48
84904;BME280;75168;52.096;5.214;2024-03-08T11:58:02;101174.91;;;17.95;34.70
84904;BME280;75168;52.096;5.214;2024-03-08T12:00:28;101167.78;;;18.03;34.08
84904;BME280;75168;52.096;5.214;2024-03-08T12:03:04;101163.31;;;18.08;33.96
84904;BME280;75168;52.096;5.214;2024-03-08T12:05:31;101165.78;;;18.22;33.62
84904;BME280;75168;52.096;5.214;2024-03-08T12:08:02;101159.59;;;18.21;32.94
84904;BME280;75168;52.096;5.214;2024-03-08T12:10:28;101152.66;;;18.16;33.26
84904;BME280;75168;52.096;5.214;2024-03-08T12:12:56;101151.66;;;18.24;32.89
84904;BME280;75168;52.096;5.214;2024-03-08T12:15:24;101144.53;;;18.31;33.35
84904;BME280;75168;52.096;5.214;2024-03-08T12:17:52;101146.19;;;18.37;32.48
84904;BME280;75168;52.096;5.214;2024-03-08T12:20:25;101145.34;;;18.36;32.74
84904;BME280;75168;52.096;5.214;2024-03-08T12:22:52;101152.44;;;18.31;31.75
84904;BME280;75168;52.096;5.214;2024-03-08T12:25:19;101136.75;;;18.22;31.99
84904;BME280;75168;52.096;5.214;2024-03-08T12:27:47;101134.13;;;18.19;31.98
84904;BME280;75168;52.096;5.214;2024-03-08T12:30:20;101148.34;;;18.10;31.71
84904;BME280;75168;52.096;5.214;2024-03-08T12:32:52;101135.19;;;18.05;32.47
84904;BME280;75168;52.096;5.214;2024-03-08T12:35:20;101125.53;;;18.04;32.64
84904;BME280;75168;52.096;5.214;2024-03-08T12:37:49;101122.03;;;18.04;32.22
84904;BME280;75168;52.096;5.214;2024-03-08T12:40:17;101122.03;;;18.04;32.76
84904;BME280;75168;52.096;5.214;2024-03-08T12:42:44;101116.72;;;18.05;32.17
84904;BME280;75168;52.096;5.214;2024-03-08T12:45:09;101112.38;;;18.01;32.06
84904;BME280;75168;52.096;5.214;2024-03-08T12:47:35;101106.22;;;18.02;32.24
84904;BME280;75168;52.096;5.214;2024-03-08T12:50:03;101109.72;;;18.03;31.96
84904;BME280;75168;52.096;5.214;2024-03-08T12:52:28;101115.00;;;18.01;31.91
84904;BME280;75168;52.096;5.214;2024-03-08T12:54:55;101102.81;;;17.94;31.94
84904;BME280;75168;52.096;5.214;2024-03-08T12:57:21;101102.91;;;17.88;32.14
84904;BME280;75168;52.096;5.214;2024-03-08T12:59:46;101102.94;;;17.82;31.38
84904;BME280;75168;52.096;5.214;2024-03-08T13:02:12;101101.38;;;17.68;31.63
84904;BME280;75168;52.096;5.214;2024-03-08T13:04:41;101095.38;;;17.54;31.77
84904;BME280;75168;52.096;5.214;2024-03-08T13:07:06;101090.16;;;17.49;32.14
84904;BME280;75168;52.096;5.214;2024-03-08T13:09:32;101084.03;;;17.47;32.06